sensor_id;sensor_type;location;lat;lon;timestamp;temperature;humidity
12025;DHT22;6073;53.230;10.444;2022-07-29T00:02:11;13.90;99.90
12025;DHT22;6073;53.230;10.444;2022-07-29T00:04:37;13.90;99.90
12025;DHT22;6073;53.230;10.444;2022-07-29T00:07:03;13.90;99.90
12025;DHT22;6073;53.230;10.444;2022-07-29T00:09:29;13.90;99.90
12025;DHT22;6073;53.230;10.444;2022-07-29T00:11:57;13.90;99.90
12025;DHT22;6073;53.230;10.444;2022-07-29T00:14:24;13.90;99.90
12025;DHT22;6073;53.230;10.444;2022-07-29T00:16:49;13.90;99.90
12025;DHT22;6073;53.230;10.444;2022-07-29T00:19:15;13.90;99.90
12025;DHT22;6073;53.230;10.444;2022-07-29T00:21:41;13.90;99.90
12025;DHT22;6073;53.230;10.444;2022-07-29T00:24:07;13.90;99.90
12025;DHT22;6073;53.230;10.444;2022-07-29T00:26:33;13.90;99.90
12025;DHT22;6073;53.230;10.444;2022-07-29T00:28:59;13.80;99.90
12025;DHT22;6073;53.230;10.444;2022-07-29T00:31:25;13.70;99.90
12025;DHT22;6073;53.230;10.444;2022-07-29T00:33:51;13.70;99.90
12025;DHT22;6073;53.230;10.444;2022-07-29T00:36:17;13.70;99.90
12025;DHT22;6073;53.230;10.444;2022-07-29T00:38:42;13.60;99.90
12025;DHT22;6073;53.230;10.444;2022-07-29T00:41:11;13.60;99.90
12025;DHT22;6073;53.230;10.444;2022-07-29T00:43:37;13.60;99.90
12025;DHT22;6073;53.230;10.444;2022-07-29T00:46:02;13.60;99.90
12025;DHT22;6073;53.230;10.444;2022-07-29T00:48:28;13.60;99.90
12025;DHT22;6073;53.230;10.444;2022-07-29T00:50:56;13.60;99.90
12025;DHT22;6073;53.230;10.444;2022-07-29T00:53:23;13.60;99.90
12025;DHT22;6073;53.230;10.444;2022-07-29T00:55:50;13.60;99.90
12025;DHT22;6073;53.230;10.444;2022-07-29T00:58:15;13.60;99.90
12025;DHT22;6073;53.230;10.444;2022-07-29T01:00:41;13.60;99.90
12025;DHT22;6073;53.230;10.444;2022-07-29T01:03:08;13.60;99.90
12025;DHT22;6073;53.230;10.444;2022-07-29T01:05:34;13.60;99.90
12025;DHT22;6073;53.230;10.444;2022-07-29T01:08:01;13.50;99.90
12025;DHT22;6073;53.230;10.444;2022-07-29T01:10:28;13.60;99.90
12025;DHT22;6073;53.230;10.444;2022-07-29T01:12:56;13.50;99.90
12025;DHT22;6073;53.230;10.444;2022-07-29T01:15:22;13.50;99.90
12025;DHT22;6073;53.230;10.444;2022-07-29T01:20:44;13.60;99.90
12025;DHT22;6073;53.230;10.444;2022-07-29T01:29:13;13.60;99.90
12025;DHT22;6073;53.230;10.444;2022-07-29T01:34:23;13.50;99.90
12025;DHT22;6073;53.230;10.444;2022-07-29T01:36:57;13.50;99.90
12025;DHT22;6073;53.230;10.444;2022-07-29T01:39:30;13.50;99.90
12025;DHT22;6073;53.230;10.444;2022-07-29T01:44:34;13.50;99.90
12025;DHT22;6073;53.230;10.444;2022-07-29T01:47:07;13.50;99.90
12025;DHT22;6073;53.230;10.444;2022-07-29T01:49:37;13.50;99.90
12025;DHT22;6073;53.230;10.444;2022-07-29T01:52:13;13.50;99.90
12025;DHT22;6073;53.230;10.444;2022-07-29T01:54:44;13.50;99.90
12025;DHT22;6073;53.230;10.444;2022-07-29T01:57:14;13.50;99.90
12025;DHT22;6073;53.230;10.444;2022-07-29T01:59:43;13.50;99.90
12025;DHT22;6073;53.230;10.444;2022-07-29T02:02:11;13.40;99.90
12025;DHT22;6073;53.230;10.444;2022-07-29T02:04:40;13.50;99.90
12025;DHT22;6073;53.230;10.444;2022-07-29T02:07:09;13.50;99.90
12025;DHT22;6073;53.230;10.444;2022-07-29T02:09:36;13.40;99.90
12025;DHT22;6073;53.230;10.444;2022-07-29T02:12:04;13.40;99.90
12025;DHT22;6073;53.230;10.444;2022-07-29T02:14:36;13.40;99.90
12025;DHT22;6073;53.230;10.444;2022-07-29T02:17:03;13.40;99.90
12025;DHT22;6073;53.230;10.444;2022-07-29T02:19:32;13.40;99.90
12025;DHT22;6073;53.230;10.444;2022-07-29T02:21:58;13.40;99.90
12025;DHT22;6073;53.230;10.444;2022-07-29T02:24:26;13.40;99.90
12025;DHT22;6073;53.230;10.444;2022-07-29T02:26:54;13.40;99.90
12025;DHT22;6073;53.230;10.444;2022-07-29T02:29:26;13.40;99.90
12025;DHT22;6073;53.230;10.444;2022-07-29T02:31:54;13.40;99.90
12025;DHT22;6073;53.230;10.444;2022-07-29T02:34:21;13.40;99.90
12025;DHT22;6073;53.230;10.444;2022-07-29T02:36:48;13.40;99.90
12025;DHT22;6073;53.230;10.444;2022-07-29T02:39:15;13.40;99.90
12025;DHT22;6073;53.230;10.444;2022-07-29T02:44:19;13.40;99.90
12025;DHT22;6073;53.230;10.444;2022-07-29T02:47:07;13.40;99.90
12025;DHT22;6073;53.230;10.444;2022-07-29T02:49:59;13.40;99.90
12025;DHT22;6073;53.230;10.444;2022-07-29T02:52:36;13.40;99.90
12025;DHT22;6073;53.230;10.444;2022-07-29T02:55:15;13.40;99.90
12025;DHT22;6073;53.230;10.444;2022-07-29T03:00:29;13.40;99.90
12025;DHT22;6073;53.230;10.444;2022-07-29T03:02:59;13.30;99.90
12025;DHT22;6073;53.230;10.444;2022-07-29T03:05:26;13.40;99.90
12025;DHT22;6073;53.230;10.444;2022-07-29T03:08:04;13.30;99.90
12025;DHT22;6073;53.230;10.444;2022-07-29T03:10:30;13.30;99.90
12025;DHT22;6073;53.230;10.444;2022-07-29T03:12:56;13.40;99.90
12025;DHT22;6073;53.230;10.444;2022-07-29T03:15:23;13.30;99.90
12025;DHT22;6073;53.230;10.444;2022-07-29T03:18:02;13.30;99.90
12025;DHT22;6073;53.230;10.444;2022-07-29T03:20:27;13.40;99.90
12025;DHT22;6073;53.230;10.444;2022-07-29T03:22:53;13.40;99.90
12025;DHT22;6073;53.230;10.444;2022-07-29T03:25:19;13.40;99.90
12025;DHT22;6073;53.230;10.444;2022-07-29T03:27:46;13.40;99.90
12025;DHT22;6073;53.230;10.444;2022-07-29T03:30:12;13.40;99.90
12025;DHT22;6073;53.230;10.444;2022-07-29T03:32:39;13.40;99.90
12025;DHT22;6073;53.230;10.444;2022-07-29T03:35:05;13.40;99.90
12025;DHT22;6073;53.230;10.444;2022-07-29T03:37:31;13.40;99.90
12025;DHT22;6073;53.230;10.444;2022-07-29T03:40:00;13.40;99.90
12025;DHT22;6073;53.230;10.444;2022-07-29T03:42:31;13.30;99.90
12025;DHT22;6073;53.230;10.444;2022-07-29T03:45:02;13.30;99.90
12025;DHT22;6073;53.230;10.444;2022-07-29T03:47:28;13.30;99.90
12025;DHT22;6073;53.230;10.444;2022-07-29T03:50:00;13.30;99.90
12025;DHT22;6073;53.230;10.444;2022-07-29T03:52:27;13.30;99.90
12025;DHT22;6073;53.230;10.444;2022-07-29T03:54:55;13.30;99.90
12025;DHT22;6073;53.230;10.444;2022-07-29T03:57:24;13.30;99.90
12025;DHT22;6073;53.230;10.444;2022-07-29T03:59:51;13.30;99.90
12025;DHT22;6073;53.230;10.444;2022-07-29T04:02:17;13.30;99.90
12025;DHT22;6073;53.230;10.444;2022-07-29T04:04:43;13.40;99.90
12025;DHT22;6073;53.230;10.444;2022-07-29T04:07:12;13.30;99.90
12025;DHT22;6073;53.230;10.444;2022-07-29T04:09:38;13.40;99.90
12025;DHT22;6073;53.230;10.444;2022-07-29T04:12:04;13.40;99.90
12025;DHT22;6073;53.230;10.444;2022-07-29T04:14:31;13.40;99.90
12025;DHT22;6073;53.230;10.444;2022-07-29T04:16:57;13.40;99.90
12025;DHT22;6073;53.230;10.444;2022-07-29T04:19:22;13.50;99.90
12025;DHT22;6073;53.230;10.444;2022-07-29T04:21:49;13.50;99.90
12025;DHT22;6073;53.230;10.444;2022-07-29T04:24:14;13.50;99.90
12025;DHT22;6073;53.230;10.444;2022-07-29T04:26:40;13.50;99.90
12025;DHT22;6073;53.230;10.444;2022-07-29T04:29:06;13.60;99.90
12025;DHT22;6073;53.230;10.444;2022-07-29T04:31:31;13.60;99.90
12025;DHT22;6073;53.230;10.444;2022-07-29T04:33:57;13.60;99.90
12025;DHT22;6073;53.230;10.444;2022-07-29T04:36:22;13.60;99.90
12025;DHT22;6073;53.230;10.444;2022-07-29T04:38:48;13.60;99.90
12025;DHT22;6073;53.230;10.444;2022-07-29T04:41:13;13.70;99.90
12025;DHT22;6073;53.230;10.444;2022-07-29T04:43:39;13.70;99.90
12025;DHT22;6073;53.230;10.444;2022-07-29T04:46:06;13.70;99.90
12025;DHT22;6073;53.230;10.444;2022-07-29T04:48:32;13.80;99.90
12025;DHT22;6073;53.230;10.444;2022-07-29T04:50:58;13.80;99.90
12025;DHT22;6073;53.230;10.444;2022-07-29T04:53:25;13.90;99.90
12025;DHT22;6073;53.230;10.444;2022-07-29T04:55:51;13.90;99.90
12025;DHT22;6073;53.230;10.444;2022-07-29T04:58:17;14.00;99.90
12025;DHT22;6073;53.230;10.444;2022-07-29T05:00:42;14.20;99.90
12025;DHT22;6073;53.230;10.444;2022-07-29T05:03:08;14.30;99.90
12025;DHT22;6073;53.230;10.444;2022-07-29T05:05:33;14.40;99.90
12025;DHT22;6073;53.230;10.444;2022-07-29T05:07:59;14.40;99.90
12025;DHT22;6073;53.230;10.444;2022-07-29T05:10:25;14.40;99.90
12025;DHT22;6073;53.230;10.444;2022-07-29T05:12:51;14.40;99.90
12025;DHT22;6073;53.230;10.444;2022-07-29T05:15:16;14.50;99.90
12025;DHT22;6073;53.230;10.444;2022-07-29T05:17:43;14.60;99.90
12025;DHT22;6073;53.230;10.444;2022-07-29T05:20:09;14.70;99.90
12025;DHT22;6073;53.230;10.444;2022-07-29T05:22:35;14.80;99.90
12025;DHT22;6073;53.230;10.444;2022-07-29T05:25:00;14.80;99.90
12025;DHT22;6073;53.230;10.444;2022-07-29T05:27:26;14.80;99.90
12025;DHT22;6073;53.230;10.444;2022-07-29T05:29:52;14.80;99.90
12025;DHT22;6073;53.230;10.444;2022-07-29T05:32:17;14.80;99.90
12025;DHT22;6073;53.230;10.444;2022-07-29T05:34:43;14.90;99.90
12025;DHT22;6073;53.230;10.444;2022-07-29T05:37:09;15.00;99.90
12025;DHT22;6073;53.230;10.444;2022-07-29T05:39:34;15.00;99.90
12025;DHT22;6073;53.230;10.444;2022-07-29T05:42:00;15.10;99.90
12025;DHT22;6073;53.230;10.444;2022-07-29T05:44:26;15.10;99.90
12025;DHT22;6073;53.230;10.444;2022-07-29T05:46:51;15.20;99.90
12025;DHT22;6073;53.230;10.444;2022-07-29T05:49:17;15.20;99.90
12025;DHT22;6073;53.230;10.444;2022-07-29T05:51:44;15.30;99.90
12025;DHT22;6073;53.230;10.444;2022-07-29T05:54:09;15.40;99.90
12025;DHT22;6073;53.230;10.444;2022-07-29T05:56:36;15.50;99.90
12025;DHT22;6073;53.230;10.444;2022-07-29T05:59:02;15.70;99.90
12025;DHT22;6073;53.230;10.444;2022-07-29T06:01:28;15.80;99.90
12025;DHT22;6073;53.230;10.444;2022-07-29T06:03:54;16.00;99.90
12025;DHT22;6073;53.230;10.444;2022-07-29T06:06:19;16.10;99.90
12025;DHT22;6073;53.230;10.444;2022-07-29T06:08:45;16.00;99.90
12025;DHT22;6073;53.230;10.444;2022-07-29T06:11:11;15.90;99.90
12025;DHT22;6073;53.230;10.444;2022-07-29T06:13:36;16.00;99.90
12025;DHT22;6073;53.230;10.444;2022-07-29T06:16:02;16.10;99.90
12025;DHT22;6073;53.230;10.444;2022-07-29T06:18:28;16.10;99.90
12025;DHT22;6073;53.230;10.444;2022-07-29T06:20:54;16.10;99.90
12025;DHT22;6073;53.230;10.444;2022-07-29T06:23:23;16.20;99.90
12025;DHT22;6073;53.230;10.444;2022-07-29T06:25:48;16.20;99.90
12025;DHT22;6073;53.230;10.444;2022-07-29T06:28:14;16.40;99.90
12025;DHT22;6073;53.230;10.444;2022-07-29T06:30:45;16.60;99.90
12025;DHT22;6073;53.230;10.444;2022-07-29T06:33:16;16.70;99.90
12025;DHT22;6073;53.230;10.444;2022-07-29T06:35:44;16.90;99.90
12025;DHT22;6073;53.230;10.444;2022-07-29T06:38:13;16.90;99.90
12025;DHT22;6073;53.230;10.444;2022-07-29T06:40:47;17.00;99.90
12025;DHT22;6073;53.230;10.444;2022-07-29T06:43:26;17.20;99.90
12025;DHT22;6073;53.230;10.444;2022-07-29T06:45:55;17.30;99.90
12025;DHT22;6073;53.230;10.444;2022-07-29T06:48:20;17.30;99.90
12025;DHT22;6073;53.230;10.444;2022-07-29T06:50:49;17.40;99.90
12025;DHT22;6073;53.230;10.444;2022-07-29T06:53:17;17.50;99.90
12025;DHT22;6073;53.230;10.444;2022-07-29T06:55:43;17.50;99.90
12025;DHT22;6073;53.230;10.444;2022-07-29T06:58:08;17.60;99.90
12025;DHT22;6073;53.230;10.444;2022-07-29T07:00:35;17.70;99.90
12025;DHT22;6073;53.230;10.444;2022-07-29T07:03:00;17.70;99.90
12025;DHT22;6073;53.230;10.444;2022-07-29T07:05:26;17.80;99.90
12025;DHT22;6073;53.230;10.444;2022-07-29T07:07:54;17.80;99.90
12025;DHT22;6073;53.230;10.444;2022-07-29T07:10:20;18.10;99.90
12025;DHT22;6073;53.230;10.444;2022-07-29T07:12:48;18.10;99.90
12025;DHT22;6073;53.230;10.444;2022-07-29T07:15:14;18.40;99.90
12025;DHT22;6073;53.230;10.444;2022-07-29T07:17:40;18.60;99.90
12025;DHT22;6073;53.230;10.444;2022-07-29T07:20:08;18.70;99.90
12025;DHT22;6073;53.230;10.444;2022-07-29T07:22:37;18.70;99.90
12025;DHT22;6073;53.230;10.444;2022-07-29T07:25:07;18.80;99.90
12025;DHT22;6073;53.230;10.444;2022-07-29T07:27:35;18.80;99.90
12025;DHT22;6073;53.230;10.444;2022-07-29T07:30:03;19.00;99.90
12025;DHT22;6073;53.230;10.444;2022-07-29T07:32:33;19.00;99.90
12025;DHT22;6073;53.230;10.444;2022-07-29T07:35:02;19.10;99.90
12025;DHT22;6073;53.230;10.444;2022-07-29T07:37:28;18.90;99.90
12025;DHT22;6073;53.230;10.444;2022-07-29T07:39:57;19.50;99.90
12025;DHT22;6073;53.230;10.444;2022-07-29T07:42:23;19.80;99.90
12025;DHT22;6073;53.230;10.444;2022-07-29T07:44:49;20.30;99.90
12025;DHT22;6073;53.230;10.444;2022-07-29T07:47:15;20.90;99.90
12025;DHT22;6073;53.230;10.444;2022-07-29T07:49:47;21.40;99.90
12025;DHT22;6073;53.230;10.444;2022-07-29T07:52:14;21.80;99.90
12025;DHT22;6073;53.230;10.444;2022-07-29T07:54:43;22.40;99.90
12025;DHT22;6073;53.230;10.444;2022-07-29T07:57:13;22.20;99.90
12025;DHT22;6073;53.230;10.444;2022-07-29T07:59:41;22.40;99.90
12025;DHT22;6073;53.230;10.444;2022-07-29T08:02:07;22.30;99.90
12025;DHT22;6073;53.230;10.444;2022-07-29T08:04:33;22.50;99.90
12025;DHT22;6073;53.230;10.444;2022-07-29T08:07:02;22.80;99.90
12025;DHT22;6073;53.230;10.444;2022-07-29T08:09:28;23.10;99.90
12025;DHT22;6073;53.230;10.444;2022-07-29T08:11:57;23.20;99.90
12025;DHT22;6073;53.230;10.444;2022-07-29T08:14:24;23.40;99.90
12025;DHT22;6073;53.230;10.444;2022-07-29T08:16:50;23.60;99.90
12025;DHT22;6073;53.230;10.444;2022-07-29T08:19:22;24.20;99.90
12025;DHT22;6073;53.230;10.444;2022-07-29T08:21:47;24.70;99.90
12025;DHT22;6073;53.230;10.444;2022-07-29T08:24:13;25.00;99.90
12025;DHT22;6073;53.230;10.444;2022-07-29T08:26:57;24.90;99.90
12025;DHT22;6073;53.230;10.444;2022-07-29T08:29:27;25.20;99.90
12025;DHT22;6073;53.230;10.444;2022-07-29T08:31:55;25.20;99.90
12025;DHT22;6073;53.230;10.444;2022-07-29T08:34:24;25.70;99.90
12025;DHT22;6073;53.230;10.444;2022-07-29T08:36:49;26.20;99.90
12025;DHT22;6073;53.230;10.444;2022-07-29T08:39:24;26.80;99.90
12025;DHT22;6073;53.230;10.444;2022-07-29T08:41:52;26.70;99.90
12025;DHT22;6073;53.230;10.444;2022-07-29T08:44:18;26.70;99.90
12025;DHT22;6073;53.230;10.444;2022-07-29T08:46:44;27.00;99.90
12025;DHT22;6073;53.230;10.444;2022-07-29T08:49:10;26.80;99.90
12025;DHT22;6073;53.230;10.444;2022-07-29T08:51:39;27.50;99.90
12025;DHT22;6073;53.230;10.444;2022-07-29T08:54:05;27.50;99.50
12025;DHT22;6073;53.230;10.444;2022-07-29T08:56:32;27.80;99.40
12025;DHT22;6073;53.230;10.444;2022-07-29T08:59:03;27.70;99.20
12025;DHT22;6073;53.230;10.444;2022-07-29T09:01:30;28.40;98.50
12025;DHT22;6073;53.230;10.444;2022-07-29T09:04:01;28.30;97.70
12025;DHT22;6073;53.230;10.444;2022-07-29T09:06:34;28.60;97.40
12025;DHT22;6073;53.230;10.444;2022-07-29T09:09:05;28.00;97.20
12025;DHT22;6073;53.230;10.444;2022-07-29T09:11:35;27.20;98.10
12025;DHT22;6073;53.230;10.444;2022-07-29T09:14:01;26.60;98.50
12025;DHT22;6073;53.230;10.444;2022-07-29T09:16:53;26.50;99.00
12025;DHT22;6073;53.230;10.444;2022-07-29T09:19:38;26.40;98.40
12025;DHT22;6073;53.230;10.444;2022-07-29T09:22:05;26.10;98.50
12025;DHT22;6073;53.230;10.444;2022-07-29T09:27:01;25.60;99.50
12025;DHT22;6073;53.230;10.444;2022-07-29T09:29:30;26.10;98.90
12025;DHT22;6073;53.230;10.444;2022-07-29T09:31:56;26.40;98.90
12025;DHT22;6073;53.230;10.444;2022-07-29T09:34:27;26.70;98.50
12025;DHT22;6073;53.230;10.444;2022-07-29T09:36:57;26.90;98.10
12025;DHT22;6073;53.230;10.444;2022-07-29T09:39:39;26.60;97.40
12025;DHT22;6073;53.230;10.444;2022-07-29T09:42:14;26.50;97.90
12025;DHT22;6073;53.230;10.444;2022-07-29T09:44:52;26.10;98.10
12025;DHT22;6073;53.230;10.444;2022-07-29T09:47:19;25.90;97.70
12025;DHT22;6073;53.230;10.444;2022-07-29T09:49:52;25.90;98.70
12025;DHT22;6073;53.230;10.444;2022-07-29T09:52:26;26.00;98.80
12025;DHT22;6073;53.230;10.444;2022-07-29T09:54:52;26.00;98.60
12025;DHT22;6073;53.230;10.444;2022-07-29T09:57:27;26.00;98.20
12025;DHT22;6073;53.230;10.444;2022-07-29T10:00:13;25.90;98.30
12025;DHT22;6073;53.230;10.444;2022-07-29T10:02:42;25.70;98.20
12025;DHT22;6073;53.230;10.444;2022-07-29T10:05:25;25.80;97.50
12025;DHT22;6073;53.230;10.444;2022-07-29T10:07:53;25.70;98.00
12025;DHT22;6073;53.230;10.444;2022-07-29T10:10:24;25.70;98.10
12025;DHT22;6073;53.230;10.444;2022-07-29T10:12:51;25.70;98.30
12025;DHT22;6073;53.230;10.444;2022-07-29T10:15:26;25.90;97.70
12025;DHT22;6073;53.230;10.444;2022-07-29T10:17:53;25.90;97.40
12025;DHT22;6073;53.230;10.444;2022-07-29T10:20:20;26.10;97.10
12025;DHT22;6073;53.230;10.444;2022-07-29T10:22:47;26.40;97.60
12025;DHT22;6073;53.230;10.444;2022-07-29T10:25:14;26.80;97.10
12025;DHT22;6073;53.230;10.444;2022-07-29T10:27:40;27.10;97.00
12025;DHT22;6073;53.230;10.444;2022-07-29T10:30:06;27.60;95.80
12025;DHT22;6073;53.230;10.444;2022-07-29T10:38:39;28.50;94.80
12025;DHT22;6073;53.230;10.444;2022-07-29T10:44:21;28.10;94.10
12025;DHT22;6073;53.230;10.444;2022-07-29T10:46:51;27.80;94.00
12025;DHT22;6073;53.230;10.444;2022-07-29T10:49:23;27.50;94.50
12025;DHT22;6073;53.230;10.444;2022-07-29T10:51:57;27.40;93.60
12025;DHT22;6073;53.230;10.444;2022-07-29T10:59:48;27.40;92.90
12025;DHT22;6073;53.230;10.444;2022-07-29T11:07:32;27.60;93.10
12025;DHT22;6073;53.230;10.444;2022-07-29T11:15:11;27.00;93.20
12025;DHT22;6073;53.230;10.444;2022-07-29T11:23:29;27.00;93.20
12025;DHT22;6073;53.230;10.444;2022-07-29T11:26:16;27.20;93.10
12025;DHT22;6073;53.230;10.444;2022-07-29T11:29:03;27.10;93.10
12025;DHT22;6073;53.230;10.444;2022-07-29T11:31:40;27.00;93.30
12025;DHT22;6073;53.230;10.444;2022-07-29T11:45:00;27.20;93.50
12025;DHT22;6073;53.230;10.444;2022-07-29T11:47:28;27.30;94.00
12025;DHT22;6073;53.230;10.444;2022-07-29T11:49:58;27.40;93.60
12025;DHT22;6073;53.230;10.444;2022-07-29T11:52:32;27.50;93.50
12025;DHT22;6073;53.230;10.444;2022-07-29T11:55:01;27.50;93.80
12025;DHT22;6073;53.230;10.444;2022-07-29T11:57:28;27.60;93.30
12025;DHT22;6073;53.230;10.444;2022-07-29T11:59:55;27.80;93.10
12025;DHT22;6073;53.230;10.444;2022-07-29T12:02:23;27.80;92.80
12025;DHT22;6073;53.230;10.444;2022-07-29T12:04:54;27.60;92.70
12025;DHT22;6073;53.230;10.444;2022-07-29T12:07:29;27.60;92.70
12025;DHT22;6073;53.230;10.444;2022-07-29T12:09:55;27.70;92.80
12025;DHT22;6073;53.230;10.444;2022-07-29T12:12:21;27.80;92.90
12025;DHT22;6073;53.230;10.444;2022-07-29T12:14:48;28.00;92.90
12025;DHT22;6073;53.230;10.444;2022-07-29T12:17:34;28.20;92.80
12025;DHT22;6073;53.230;10.444;2022-07-29T12:20:04;28.40;92.30
12025;DHT22;6073;53.230;10.444;2022-07-29T12:22:36;28.30;92.20
12025;DHT22;6073;53.230;10.444;2022-07-29T12:25:07;28.00;92.00
12025;DHT22;6073;53.230;10.444;2022-07-29T12:27:36;27.90;92.60
12025;DHT22;6073;53.230;10.444;2022-07-29T12:30:07;28.00;92.30
12025;DHT22;6073;53.230;10.444;2022-07-29T12:32:36;28.10;92.60
12025;DHT22;6073;53.230;10.444;2022-07-29T12:35:09;28.50;92.20
12025;DHT22;6073;53.230;10.444;2022-07-29T12:37:36;28.90;91.60
12025;DHT22;6073;53.230;10.444;2022-07-29T12:40:04;29.00;91.40
12025;DHT22;6073;53.230;10.444;2022-07-29T12:42:31;29.10;91.20
12025;DHT22;6073;53.230;10.444;2022-07-29T12:44:57;29.30;91.30
12025;DHT22;6073;53.230;10.444;2022-07-29T12:47:22;29.40;91.00
12025;DHT22;6073;53.230;10.444;2022-07-29T12:49:49;29.20;90.80
12025;DHT22;6073;53.230;10.444;2022-07-29T12:52:30;29.20;91.20
12025;DHT22;6073;53.230;10.444;2022-07-29T12:54:56;29.10;91.00
12025;DHT22;6073;53.230;10.444;2022-07-29T12:57:23;28.70;91.30
12025;DHT22;6073;53.230;10.444;2022-07-29T13:00:07;28.60;91.70
12025;DHT22;6073;53.230;10.444;2022-07-29T13:02:35;28.90;91.50
12025;DHT22;6073;53.230;10.444;2022-07-29T13:05:01;29.30;90.70
12025;DHT22;6073;53.230;10.444;2022-07-29T13:07:30;29.30;90.80
12025;DHT22;6073;53.230;10.444;2022-07-29T13:10:12;29.40;90.80
12025;DHT22;6073;53.230;10.444;2022-07-29T13:13:16;29.50;90.80
12025;DHT22;6073;53.230;10.444;2022-07-29T13:15:53;29.70;90.20
12025;DHT22;6073;53.230;10.444;2022-07-29T13:18:34;29.90;89.30
12025;DHT22;6073;53.230;10.444;2022-07-29T13:21:14;29.80;88.70
12025;DHT22;6073;53.230;10.444;2022-07-29T13:23:43;29.40;89.10
12025;DHT22;6073;53.230;10.444;2022-07-29T13:26:13;29.70;89.00
12025;DHT22;6073;53.230;10.444;2022-07-29T13:28:38;29.90;88.10
12025;DHT22;6073;53.230;10.444;2022-07-29T13:31:05;29.90;87.90
12025;DHT22;6073;53.230;10.444;2022-07-29T13:33:31;29.90;87.20
12025;DHT22;6073;53.230;10.444;2022-07-29T13:36:00;29.70;86.50
12025;DHT22;6073;53.230;10.444;2022-07-29T13:38:25;29.50;86.70
12025;DHT22;6073;53.230;10.444;2022-07-29T13:40:52;29.30;87.50
12025;DHT22;6073;53.230;10.444;2022-07-29T13:43:18;29.40;87.90
12025;DHT22;6073;53.230;10.444;2022-07-29T13:45:45;29.50;88.00
12025;DHT22;6073;53.230;10.444;2022-07-29T13:48:10;29.40;87.20
12025;DHT22;6073;53.230;10.444;2022-07-29T13:50:36;29.30;86.80
12025;DHT22;6073;53.230;10.444;2022-07-29T13:53:04;28.80;87.30
12025;DHT22;6073;53.230;10.444;2022-07-29T13:55:30;28.80;87.90
12025;DHT22;6073;53.230;10.444;2022-07-29T13:57:59;28.80;87.40
12025;DHT22;6073;53.230;10.444;2022-07-29T14:00:28;29.00;88.00
12025;DHT22;6073;53.230;10.444;2022-07-29T14:03:02;29.10;87.00
12025;DHT22;6073;53.230;10.444;2022-07-29T14:05:29;29.20;87.00
12025;DHT22;6073;53.230;10.444;2022-07-29T14:07:55;29.10;86.50
12025;DHT22;6073;53.230;10.444;2022-07-29T14:10:24;29.00;86.80
12025;DHT22;6073;53.230;10.444;2022-07-29T14:12:49;28.70;86.40
12025;DHT22;6073;53.230;10.444;2022-07-29T14:15:15;28.40;86.50
12025;DHT22;6073;53.230;10.444;2022-07-29T14:17:40;28.50;86.70
12025;DHT22;6073;53.230;10.444;2022-07-29T14:20:06;28.40;86.20
12025;DHT22;6073;53.230;10.444;2022-07-29T14:22:34;28.60;86.80
12025;DHT22;6073;53.230;10.444;2022-07-29T14:25:03;28.70;85.60
12025;DHT22;6073;53.230;10.444;2022-07-29T14:27:38;28.70;86.80
12025;DHT22;6073;53.230;10.444;2022-07-29T14:30:05;28.70;86.60
12025;DHT22;6073;53.230;10.444;2022-07-29T14:32:31;28.60;86.40
12025;DHT22;6073;53.230;10.444;2022-07-29T14:34:57;28.80;86.80
12025;DHT22;6073;53.230;10.444;2022-07-29T14:37:22;29.10;86.50
12025;DHT22;6073;53.230;10.444;2022-07-29T14:39:51;29.10;85.50
12025;DHT22;6073;53.230;10.444;2022-07-29T14:42:19;29.10;85.80
12025;DHT22;6073;53.230;10.444;2022-07-29T14:44:48;29.20;85.40
12025;DHT22;6073;53.230;10.444;2022-07-29T14:47:17;29.30;86.10
12025;DHT22;6073;53.230;10.444;2022-07-29T14:49:43;29.40;85.20
12025;DHT22;6073;53.230;10.444;2022-07-29T14:52:08;29.40;84.80
12025;DHT22;6073;53.230;10.444;2022-07-29T14:54:34;29.30;83.60
12025;DHT22;6073;53.230;10.444;2022-07-29T14:57:03;29.20;83.40
12025;DHT22;6073;53.230;10.444;2022-07-29T14:59:31;28.90;83.10
12025;DHT22;6073;53.230;10.444;2022-07-29T15:01:57;28.80;83.90
12025;DHT22;6073;53.230;10.444;2022-07-29T15:04:26;28.80;83.90
12025;DHT22;6073;53.230;10.444;2022-07-29T15:06:51;28.60;84.00
12025;DHT22;6073;53.230;10.444;2022-07-29T15:09:22;28.40;84.50
12025;DHT22;6073;53.230;10.444;2022-07-29T15:11:51;28.20;84.50
12025;DHT22;6073;53.230;10.444;2022-07-29T15:14:16;28.10;83.90
12025;DHT22;6073;53.230;10.444;2022-07-29T15:16:42;28.10;83.80
12025;DHT22;6073;53.230;10.444;2022-07-29T15:19:10;28.00;83.60
12025;DHT22;6073;53.230;10.444;2022-07-29T15:21:36;27.90;84.50
12025;DHT22;6073;53.230;10.444;2022-07-29T15:24:02;27.70;84.30
12025;DHT22;6073;53.230;10.444;2022-07-29T15:26:28;27.50;84.20
12025;DHT22;6073;53.230;10.444;2022-07-29T15:28:53;27.40;83.90
12025;DHT22;6073;53.230;10.444;2022-07-29T15:31:22;27.50;84.70
12025;DHT22;6073;53.230;10.444;2022-07-29T15:33:54;27.60;85.20
12025;DHT22;6073;53.230;10.444;2022-07-29T15:36:22;27.60;84.40
12025;DHT22;6073;53.230;10.444;2022-07-29T15:38:59;27.50;84.70
12025;DHT22;6073;53.230;10.444;2022-07-29T15:41:25;27.80;84.50
12025;DHT22;6073;53.230;10.444;2022-07-29T15:43:56;28.10;84.50
12025;DHT22;6073;53.230;10.444;2022-07-29T15:46:22;28.60;84.90
12025;DHT22;6073;53.230;10.444;2022-07-29T15:49:06;28.90;82.40
12025;DHT22;6073;53.230;10.444;2022-07-29T15:51:35;28.80;82.20
12025;DHT22;6073;53.230;10.444;2022-07-29T15:54:04;28.90;82.30
12025;DHT22;6073;53.230;10.444;2022-07-29T15:56:30;28.90;82.40
12025;DHT22;6073;53.230;10.444;2022-07-29T15:58:56;29.20;81.40
12025;DHT22;6073;53.230;10.444;2022-07-29T16:01:24;29.20;80.80
12025;DHT22;6073;53.230;10.444;2022-07-29T16:03:49;29.20;80.60
12025;DHT22;6073;53.230;10.444;2022-07-29T16:06:16;29.20;80.40
12025;DHT22;6073;53.230;10.444;2022-07-29T16:08:53;29.30;80.70
12025;DHT22;6073;53.230;10.444;2022-07-29T16:11:20;29.50;80.70
12025;DHT22;6073;53.230;10.444;2022-07-29T16:13:46;29.30;82.00
12025;DHT22;6073;53.230;10.444;2022-07-29T16:16:11;28.90;81.80
12025;DHT22;6073;53.230;10.444;2022-07-29T16:18:37;28.60;82.20
12025;DHT22;6073;53.230;10.444;2022-07-29T16:21:03;28.70;82.30
12025;DHT22;6073;53.230;10.444;2022-07-29T16:23:34;28.90;81.80
12025;DHT22;6073;53.230;10.444;2022-07-29T16:26:03;29.10;81.80
12025;DHT22;6073;53.230;10.444;2022-07-29T16:28:28;29.20;82.10
12025;DHT22;6073;53.230;10.444;2022-07-29T16:30:58;29.20;81.70
12025;DHT22;6073;53.230;10.444;2022-07-29T16:33:30;29.30;82.50
12025;DHT22;6073;53.230;10.444;2022-07-29T16:35:57;29.00;92.20
12025;DHT22;6073;53.230;10.444;2022-07-29T16:38:23;28.60;94.00
12025;DHT22;6073;53.230;10.444;2022-07-29T16:40:48;28.40;94.40
12025;DHT22;6073;53.230;10.444;2022-07-29T16:43:15;28.40;94.70